Date,TemperatureHighF,TemperatureAvgF,TemperatureLowF,DewpointHighF,DewpointAvgF,DewpointLowF,HumidityHigh,HumidityAvg,HumidityLow,PressureMaxIn,PressureMinIn,WindSpeedMaxMPH,WindSpeedAvgMPH,GustSpeedMaxMPH,PrecipitationSumIn
2013-1-1,45.8,40.6,33.7,45.0,38.5,29.0,98,92,77,0.00,0.00,5,1,6,0.29
2013-1-2,49.7,45.7,41.8,47.0,42.5,36.0,99,89,67,32.16,0.00,8,1,11,0.06
2013-1-3,43.0,39.3,31.5,39.0,34.9,26.0,94,84,67,32.16,32.16,4,1,8,0.00
2013-1-4,50.5,34.3,22.4,29.0,23.3,19.0,94,68,33,32.16,32.16,12,3,16,0.00
2013-1-5,49.4,34.9,21.6,35.0,24.2,19.0,91,68,40,32.16,32.16,10,2,16,0.01
2013-1-6,56.0,42.6,35.7,41.0,36.4,30.0,97,80,55,32.28,21.40,10,1,16,0.01
2013-1-7,49.7,39.0,25.5,33.0,28.7,23.0,91,68,47,32.21,32.21,8,2,14,0.00
2013-1-8,51.8,34.4,21.2,39.0,29.3,20.0,95,83,61,32.21,32.21,4,1,5,0.00
2013-1-9,57.5,47.1,36.8,51.0,42.7,34.0,94,85,72,32.21,32.21,5,1,7,0.01
2013-1-10,63.7,52.1,42.9,54.0,46.2,39.0,99,82,57,32.21,32.21,5,1,7,0.00
2013-1-11,52.2,47.0,45.0,47.0,44.6,39.0,98,92,61,32.21,32.21,5,1,9,0.29
2013-1-12,66.4,54.1,47.6,62.0,53.1,47.0,100,96,85,32.21,32.12,3,0,5,0.02
2013-1-13,71.8,59.3,48.8,66.0,56.2,49.0,100,90,69,32.12,21.23,15,2,20,0.01
2013-1-14,63.5,60.5,54.7,63.0,60.0,54.0,99,98,92,32.18,0.00,4,0,5,0.50
2013-1-15,62.8,49.6,41.8,63.0,49.0,41.0,99,98,97,32.19,0.00,9,2,15,0.77
2013-1-16,48.9,44.3,41.5,48.0,43.7,41.0,99,98,97,32.19,31.83,3,0,5,0.31
2013-1-17,50.5,35.5,39.9,50.0,9.1,-99.9,99,73,95,32.19,31.74,14,-259,21,0.94
2013-1-18,47.4,15.9,31.5,31.2,-51.3,-99.9,88,23,46,26.12,-32.77,7,-622,8,0.22
2013-1-19,54.3,24.1,28.5,35.0,-28.8,-99.9,96,34,43,30.48,-32.77,5,-458,9,0.22
2013-1-20,61.1,41.7,26.4,38.1,29.4,24.9,95,68,32,30.22,30.06,18,4,24,0.00
2013-1-21,56.7,39.8,26.1,35.3,27.4,18.0,95,66,34,30.14,29.95,22,5,29,0.00
2013-1-22,41.1,32.3,24.5,18.7,7.7,-1.0,53,37,20,30.27,30.02,18,7,26,0.00
2013-1-23,46.3,34.5,27.9,24.2,14.5,-0.3,71,44,27,30.37,30.14,12,4,19,0.00
2013-1-24,45.4,35.8,26.1,31.7,18.0,6.0,87,53,25,30.43,30.00,27,6,37,0.00
2013-1-25,25.9,23.5,17.6,24.0,17.7,12.0,91,79,64,30.50,30.18,7,2,11,0.00
2013-1-26,40.2,29.8,22.4,37.0,28.3,21.0,97,94,86,30.35,30.15,4,1,6,0.12
2013-1-27,39.3,30.3,20.3,31.0,26.0,19.0,96,85,65,30.62,30.36,5,0,8,0.01
2013-1-28,56.4,41.4,33.3,46.0,37.1,31.0,97,86,68,30.56,30.27,5,1,7,0.01
2013-1-29,71.3,49.6,33.7,59.0,45.1,33.0,99,86,58,30.29,30.07,7,2,14,0.00
2013-1-30,66.7,62.9,58.4,63.0,60.6,56.0,97,92,85,30.09,29.40,18,6,30,1.11
2013-1-31,60.0,42.5,34.9,59.0,30.2,21.0,97,63,44,30.02,29.44,24,11,37,0.09
2013-2-1,38.8,31.1,25.1,30.0,15.3,6.0,88,54,33,30.39,29.92,27,6,36,0.00
2013-2-2,41.1,29.2,18.1,30.0,16.6,10.0,89,62,36,30.43,30.10,9,1,12,0.00
2013-2-3,47.9,39.4,31.3,34.0,29.2,22.0,94,68,47,30.13,29.90,22,8,33,0.01
2013-2-4,50.7,36.5,23.3,30.0,23.9,19.0,85,62,41,30.17,30.02,11,1,19,0.00
2013-2-5,59.9,41.6,27.5,40.0,30.7,25.0,92,68,36,30.05,29.93,14,2,19,0.00
2013-2-6,61.6,44.8,31.6,39.0,29.8,25.0,90,61,26,30.21,30.00,9,2,13,0.00
2013-2-7,43.4,37.0,31.4,39.0,32.6,26.0,96,84,66,30.33,30.14,4,0,8,0.60
2013-2-8,56.6,44.5,37.7,48.0,38.4,31.0,97,82,45,30.13,29.91,22,6,28,0.01
2013-2-9,58.5,41.0,25.9,31.0,25.5,21.0,88,59,23,30.35,30.09,12,3,16,0.00
2013-2-10,54.1,39.7,28.9,40.0,28.4,25.0,91,68,36,30.47,30.29,7,1,13,0.13
2013-2-11,57.6,47.9,40.9,56.0,44.7,33.0,99,91,42,30.33,29.98,8,1,13,0.10
2013-2-12,56.5,50.3,40.9,40.0,30.7,25.0,74,48,32,30.12,29.93,11,2,14,0.00
2013-2-13,50.5,43.4,41.3,45.0,41.0,34.0,98,92,57,30.03,29.68,17,2,23,0.24
2013-2-14,53.5,40.4,26.6,36.0,31.3,25.0,94,72,48,30.09,29.81,14,3,24,0.00
2013-2-15,60.2,40.9,26.0,40.0,31.8,25.0,96,75,36,30.14,29.95,13,2,16,0.00
2013-2-16,46.2,36.8,30.3,37.0,27.5,16.0,93,69,48,30.03,29.86,14,3,22,0.05
2013-2-17,38.9,30.7,24.2,19.0,11.7,7.0,64,46,32,30.26,30.00,23,9,29,0.00
2013-2-18,51.5,34.7,18.7,28.0,19.6,11.0,85,56,38,30.42,30.26,9,2,12,0.00
2013-2-19,53.2,41.5,36.5,45.0,31.6,19.0,95,70,35,30.27,29.88,22,3,30,0.08
2013-2-20,53.0,41.5,25.3,20.0,14.1,8.0,68,35,19,30.13,30.01,20,6,32,0.00
2013-2-21,56.2,38.2,20.8,26.0,19.2,9.0,84,50,27,30.25,30.12,7,1,9,0.00
2013-2-22,47.5,37.3,34.4,37.0,34.7,26.0,97,91,42,30.34,30.19,3,1,6,0.39
2013-2-23,47.7,39.9,35.2,44.0,38.5,34.0,98,95,87,30.21,29.87,5,1,9,0.25
2013-2-24,62.1,48.2,35.6,43.0,35.0,23.0,99,67,25,30.04,29.87,15,4,20,0.01
2013-2-25,47.3,36.3,28.7,30.0,28.1,26.0,92,73,48,30.22,30.04,8,2,10,0.00
2013-2-26,38.2,35.2,31.9,37.0,32.0,25.0,97,89,62,30.18,29.63,11,2,16,1.70
2013-2-27,56.1,43.6,32.7,41.0,36.9,32.0,99,80,53,29.83,29.68,14,3,16,0.01
2013-2-28,45.8,41.3,35.6,39.0,29.3,26.0,90,62,52,29.91,29.74,20,8,24,0.00
2013-3-1,45.5,37.1,27.0,31.0,28.5,25.0,92,72,53,29.97,29.90,10,3,15,0.00
2013-3-2,44.1,37.1,33.3,37.0,30.1,22.0,93,77,50,29.96,29.86,18,3,24,0.00
2013-3-3,40.8,31.3,19.7,23.0,19.4,17.0,89,63,44,30.05,24.28,16,5,23,0.00
2013-3-4,55.3,36.7,20.8,25.0,17.9,15.0,79,50,22,30.18,30.04,12,2,17,0.00
2013-3-5,42.4,38.2,32.6,41.0,33.8,24.0,97,85,55,30.10,29.68,11,1,14,0.81
2013-3-6,41.9,37.3,31.6,39.0,27.7,22.0,97,69,52,30.11,29.66,23,10,38,0.04
2013-3-7,51.1,36.1,24.0,31.0,26.4,21.0,92,69,44,30.31,24.50,14,4,18,0.00
2013-3-8,53.4,36.6,20.6,29.0,24.5,19.0,94,65,37,30.37,30.27,19,3,19,0.00
2013-3-9,61.4,41.9,23.5,35.0,28.9,21.0,93,64,35,30.40,24.59,8,2,11,0.00
2013-3-10,64.4,48.4,32.7,41.0,36.5,30.0,92,66,38,30.32,24.51,7,1,13,0.00
2013-3-11,59.5,49.1,40.5,50.0,41.8,35.0,95,77,66,30.22,29.88,8,1,14,0.22
2013-3-12,59.6,53.0,46.1,52.0,44.6,32.0,99,77,41,29.99,24.30,12,4,18,0.58
2013-3-13,48.8,42.7,32.3,33.0,26.8,19.0,82,54,40,30.18,24.32,20,8,31,0.00
2013-3-14,51.4,38.3,28.0,22.0,18.1,16.0,61,45,27,30.33,30.19,21,6,25,0.00
2013-3-15,67.2,45.8,27.1,41.0,30.1,19.0,83,56,37,30.24,24.26,13,3,17,0.00
2013-3-16,79.6,62.2,42.8,52.0,45.1,39.0,90,58,32,32.37,24.02,17,6,32,0.00
2013-3-17,68.6,58.2,45.2,56.0,49.2,41.0,90,73,52,32.50,0.00,20,4,20,0.00
2013-3-18,44.6,39.0,37.2,40.0,37.4,36.0,97,94,84,30.17,29.93,9,3,13,0.35
2013-3-19,60.2,47.1,36.4,41.0,31.9,19.0,99,64,27,30.08,29.88,24,7,32,0.00
2013-3-20,55.0,45.4,33.2,25.0,17.5,11.0,62,33,22,30.14,24.18,15,5,19,0.00
2013-3-21,46.5,35.4,28.0,29.0,14.6,8.0,65,42,34,29.98,24.21,17,8,28,0.00
2013-3-22,49.7,35.5,18.9,25.0,18.2,13.0,84,52,27,30.13,24.34,8,2,17,0.00
2013-3-23,57.7,43.5,31.3,38.0,32.1,24.0,89,66,47,30.08,23.84,6,1,13,0.00
2013-3-24,48.5,41.9,37.4,42.0,39.3,36.0,100,91,67,29.95,29.57,8,2,12,0.72
2013-3-25,42.9,37.9,34.4,36.0,30.4,25.0,97,76,52,29.88,24.01,24,8,31,0.06
2013-3-26,44.1,37.0,27.4,28.0,25.3,22.0,83,63,50,30.20,24.41,19,6,20,0.00
2013-3-27,46.3,38.7,31.6,28.0,24.6,21.0,76,57,42,30.30,24.57,16,7,22,0.00
2013-3-28,53.8,39.5,23.0,29.0,24.1,20.0,88,57,33,30.35,23.71,16,4,18,0.00
2013-3-29,59.2,41.5,23.9,37.0,28.2,21.0,93,64,29,30.39,0.00,14,2,19,0.00
2013-3-30,63.1,51.1,38.9,43.0,38.6,33.0,92,65,41,30.27,24.40,9,2,13,0.00
2013-3-31,66.1,53.7,47.1,56.0,49.2,41.0,98,85,63,32.33,0.00,15,2,17,0.33
2013-4-1,65.4,55.1,41.1,52.0,45.0,38.0,99,73,43,32.29,24.18,17,5,27,0.01
2013-4-2,60.7,50.9,40.3,39.0,29.8,22.0,67,46,25,30.17,24.32,14,5,20,0.00
2013-4-3,59.4,49.3,35.6,32.0,25.0,18.0,54,39,30,32.07,23.58,9,2,13,0.00
2013-4-4,48.8,39.5,34.4,36.0,30.8,19.0,96,73,37,30.33,24.46,8,2,13,0.99
2013-4-5,63.4,47.5,36.3,47.0,38.9,32.0,98,77,32,32.45,24.36,10,4,20,0.01
2013-4-6,66.2,50.2,32.5,43.0,37.5,31.0,97,66,36,31.87,0.00,9,2,13,0.00
2013-4-7,69.9,57.2,40.2,50.0,44.4,36.0,88,63,48,30.25,0.00,10,2,19,0.00
2013-4-8,76.4,58.7,42.3,59.0,49.2,41.0,96,74,46,30.17,0.00,15,2,20,0.00
2013-4-9,81.6,65.9,46.7,61.0,54.2,45.0,97,69,47,30.25,0.00,8,1,16,0.00
2013-4-10,83.7,68.2,51.4,64.0,57.2,50.0,97,71,46,30.16,0.00,8,2,18,0.00
2013-4-11,78.3,67.5,54.9,64.0,58.9,53.0,96,75,53,32.49,0.00,17,3,21,0.13
2013-4-12,79.5,68.8,61.0,67.0,57.5,37.0,96,72,33,32.48,24.08,20,7,24,0.57
2013-4-13,73.1,60.6,41.6,47.0,39.8,35.0,88,49,27,32.04,24.26,15,6,24,0.00
2013-4-14,73.7,57.4,38.4,51.0,43.7,36.0,94,63,38,31.43,24.33,10,2,16,0.00
2013-4-15,63.1,57.3,54.2,58.0,54.6,51.0,100,91,65,31.94,0.00,6,2,12,0.30
2013-4-16,76.9,64.5,56.2,64.0,59.0,56.0,99,84,60,32.08,23.65,6,1,10,0.00
2013-4-17,75.5,64.7,55.9,66.0,60.6,55.0,98,87,67,31.98,0.00,12,2,15,0.04
2013-4-18,76.9,65.7,55.3,64.0,60.3,55.0,99,84,58,30.15,0.00,7,2,15,0.00
2013-4-19,68.5,65.8,56.0,66.0,62.5,50.0,96,89,78,32.14,0.00,15,5,22,0.54
2013-4-20,63.2,51.9,40.2,49.0,35.3,30.0,80,55,33,30.25,0.00,15,5,30,0.01
2013-4-21,59.6,47.3,32.6,42.0,36.9,31.0,97,70,45,32.28,0.00,11,2,16,0.00
2013-4-22,61.7,50.9,37.5,42.0,37.5,34.0,92,62,40,32.08,0.00,11,3,17,0.00
2013-4-23,69.7,51.2,33.9,52.0,42.4,33.0,96,74,48,32.08,21.02,7,1,9,0.00
2013-4-24,72.0,59.3,43.7,60.0,52.4,43.0,98,80,60,30.15,0.00,14,3,23,0.00
2013-4-25,71.3,58.8,45.2,57.0,41.2,24.0,90,56,21,30.29,0.00,13,3,13,0.00
2013-4-26,67.5,52.7,33.7,48.0,38.4,30.0,95,62,36,32.23,23.89,7,1,11,0.00
2013-4-27,61.9,55.2,51.5,56.0,51.9,47.0,96,89,72,32.15,0.00,4,0,9,0.10
2013-4-28,54.7,53.3,51.9,54.0,52.9,52.0,99,98,97,32.42,24.46,4,0,6,1.38
2013-4-29,70.0,59.7,52.9,62.0,56.9,53.0,100,91,73,30.06,0.00,8,1,12,0.07
2013-4-30,71.7,63.2,57.4,63.0,59.3,56.0,98,88,69,31.94,24.35,7,2,9,0.00
2013-5-1,65.4,59.5,52.8,57.0,55.5,52.0,98,87,73,32.47,0.00,9,2,17,0.00
2013-5-2,60.5,56.7,52.4,57.0,54.6,52.0,97,93,87,30.33,24.64,8,2,15,0.18
2013-5-3,62.8,58.0,53.9,55.0,52.6,50.0,96,83,68,31.94,24.51,9,3,17,0.00
2013-5-4,59.5,53.7,48.7,52.0,47.1,43.0,92,78,68,31.81,0.00,17,5,18,0.00
2013-5-5,54.5,49.8,46.8,53.0,48.3,45.0,98,95,81,30.09,23.37,15,4,21,2.06
2013-5-6,67.5,58.9,50.8,61.0,54.2,48.0,99,86,49,32.10,24.19,18,4,28,1.04
2013-5-7,66.4,53.7,43.3,58.0,50.4,43.0,99,90,60,31.94,0.00,6,1,12,0.11
2013-5-8,70.2,58.8,49.9,62.0,55.2,49.0,99,89,66,31.73,23.43,8,2,12,0.05
2013-5-9,80.1,63.8,46.8,63.0,55.8,46.0,99,78,46,32.43,0.00,7,1,11,0.01
2013-5-10,80.0,66.0,50.9,66.0,58.6,50.0,99,80,52,32.45,0.00,12,3,22,0.00
2013-5-11,75.7,67.1,58.8,65.0,61.5,58.0,98,83,65,29.87,0.00,15,2,44,0.78
2013-5-12,66.7,59.4,47.3,60.0,48.4,37.0,99,71,39,32.31,0.00,16,4,23,0.00
2013-5-13,65.3,52.0,36.1,47.0,37.8,33.0,96,62,32,31.24,0.00,16,3,22,0.00
2013-5-14,72.1,54.5,35.8,51.0,43.1,35.0,97,69,43,31.88,0.00,9,2,15,0.00
2013-5-15,88.3,67.8,48.1,67.0,56.9,47.0,96,72,41,32.43,0.00,10,2,15,0.00
2013-5-16,81.9,69.8,57.3,66.0,59.9,52.0,94,72,44,32.40,0.00,6,2,14,0.00
2013-5-17,82.2,68.8,54.0,66.0,60.8,54.0,100,78,53,32.42,0.00,6,1,11,0.00
2013-5-18,70.7,65.5,61.0,68.0,64.1,60.0,98,95,87,32.46,0.00,4,1,7,0.26
2013-5-19,76.0,68.6,64.6,70.0,66.6,64.0,100,94,79,32.43,29.75,8,1,11,0.35
2013-5-20,81.7,70.5,65.3,71.0,67.4,65.0,99,91,66,32.44,0.00,5,1,8,0.29
2013-5-21,85.3,72.4,61.1,73.0,67.4,61.0,100,86,61,32.29,26.54,5,1,15,0.01
2013-5-22,82.5,68.3,60.9,73.0,65.7,60.0,99,92,65,32.24,0.00,15,2,20,1.30
2013-5-23,77.4,64.6,61.2,70.0,62.5,59.0,100,94,71,32.25,0.00,11,1,15,0.22
2013-5-24,68.8,63.9,55.8,60.0,49.2,39.0,89,61,36,32.47,22.45,23,7,30,0.00
2013-5-25,77.1,60.8,43.2,50.0,42.3,38.0,88,54,29,32.03,0.00,11,3,24,0.00
2013-5-26,75.5,63.2,52.7,58.0,51.4,44.0,94,67,43,32.37,24.53,6,1,11,0.02
2013-5-27,79.2,64.9,49.9,63.0,56.9,49.0,98,78,54,32.49,0.00,9,2,12,0.00
2013-5-28,81.2,69.9,57.2,69.0,63.0,56.0,98,80,58,32.42,0.00,15,2,15,0.00
2013-5-29,82.6,72.3,59.1,70.0,64.0,58.0,97,77,56,29.86,22.56,7,1,11,0.00
2013-5-30,82.4,70.0,57.0,69.0,63.2,56.0,99,81,55,29.92,20.81,7,1,10,0.00
2013-5-31,82.5,71.4,59.3,69.0,64.4,59.0,100,81,57,29.93,20.84,10,2,13,0.00
2013-6-1,82.1,73.4,63.5,69.0,65.8,63.0,98,79,59,28.37,20.56,11,2,17,0.00
2013-6-2,76.8,70.9,66.1,72.0,67.4,64.0,96,89,80,28.16,28.03,8,1,12,1.71
2013-6-3,85.1,76.1,66.3,71.0,68.4,62.0,100,79,47,32.04,27.99,7,1,10,0.01
2013-6-4,77.0,69.9,64.6,68.0,65.5,64.0,98,87,68,32.04,20.62,8,1,12,0.05
2013-6-5,72.6,68.0,64.5,69.0,65.7,63.0,97,92,87,29.75,20.53,5,1,9,0.07
2013-6-6,77.3,70.2,65.6,73.0,68.6,65.0,100,95,84,29.60,0.00,8,1,9,1.30
2013-6-7,80.2,70.9,66.5,73.0,68.7,66.0,99,93,75,27.76,0.00,11,1,13,0.38
2013-6-8,80.7,71.2,63.2,72.0,67.1,63.0,99,88,70,22.17,0.00,8,1,12,0.12
2013-6-9,81.7,70.9,63.7,73.0,68.3,63.0,99,92,72,22.41,0.00,9,1,16,1.94
2013-6-10,77.5,71.4,67.4,72.0,69.0,65.0,99,92,75,0.00,0.00,13,3,17,0.69
2013-6-11,83.8,73.4,63.7,70.0,66.2,63.0,99,81,51,22.11,0.00,10,2,18,0.05
2013-6-12,90.1,75.1,61.3,79.0,69.9,61.0,99,85,65,29.45,0.00,8,1,12,0.00
2013-6-13,91.1,76.2,67.2,75.0,70.1,66.0,98,83,49,29.45,21.87,20,3,27,0.23
2013-6-14,80.1,71.2,59.0,67.0,59.3,56.0,90,68,46,28.00,0.00,16,5,22,0.00
2013-6-15,83.4,68.8,54.2,68.0,60.5,53.0,98,77,53,28.00,28.00,8,1,10,0.00
2013-6-16,83.9,72.8,60.8,71.0,65.9,60.0,98,81,59,28.00,22.15,10,2,12,0.00
2013-6-17,82.1,72.7,67.9,73.0,69.7,66.0,98,91,72,22.15,22.05,8,1,19,1.04
2013-6-18,77.1,72.0,68.3,74.0,70.3,68.0,99,95,85,22.05,22.05,5,1,13,0.12
2013-6-19,80.5,71.5,61.2,70.0,66.0,61.0,99,84,61,24.99,0.00,6,1,7,0.00
2013-6-20,80.3,71.0,63.2,71.0,66.8,63.0,99,87,67,29.63,0.00,7,1,11,0.00
2013-6-21,82.8,71.8,62.0,70.0,65.3,61.0,99,82,58,24.94,0.00,5,1,10,0.00
2013-6-22,83.8,71.4,57.6,69.0,64.1,57.0,99,80,52,28.30,0.00,4,1,8,0.01
2013-6-23,86.6,73.9,62.8,73.0,67.9,62.0,99,83,58,22.27,0.00,6,1,10,0.00
2013-6-24,84.8,73.6,66.8,75.0,69.9,66.0,99,89,62,22.32,0.00,7,1,13,0.01
2013-6-25,86.5,75.0,66.2,75.0,70.7,66.0,99,88,66,24.83,21.94,16,1,17,0.00
2013-6-26,88.1,74.3,64.8,76.0,70.3,65.0,99,88,61,22.08,0.00,6,1,11,0.01
2013-6-27,87.2,74.9,65.7,76.0,70.1,65.0,99,86,68,22.08,21.69,8,2,15,0.01
2013-6-28,88.8,76.7,65.7,75.0,70.3,65.0,99,82,54,21.69,21.69,9,2,27,0.04
2013-6-29,86.8,75.0,63.0,72.0,68.2,62.0,99,81,49,21.69,21.52,7,1,11,0.00
2013-6-30,84.3,74.3,67.4,74.0,69.8,67.0,99,87,65,21.63,21.52,10,1,13,0.24
2013-7-1,80.0,72.9,66.8,73.0,69.7,67.0,99,90,76,0.00,0.00,7,1,13,0.08
2013-7-2,74.0,70.5,67.2,73.0,69.7,67.0,99,97,90,22.11,0.00,8,1,16,2.42
2013-7-3,78.3,72.8,69.0,75.0,71.3,69.0,100,95,84,22.11,22.11,9,2,12,0.16
2013-7-4,81.4,73.1,67.4,77.0,71.0,67.0,99,93,80,22.11,22.11,6,1,14,0.56
2013-7-5,82.9,72.6,68.9,76.0,71.1,68.0,100,95,76,0.00,0.00,7,1,14,1.62
2013-7-6,84.0,73.6,68.4,75.0,71.0,68.0,100,92,71,0.00,0.00,13,1,14,0.43
2013-7-7,82.9,75.5,71.3,78.0,72.7,70.0,99,92,78,0.00,0.00,13,2,15,0.04
2013-7-8,87.4,75.3,69.1,74.0,70.9,69.0,99,88,55,24.98,0.00,4,1,7,0.00
2013-7-9,89.0,77.4,68.3,76.0,72.0,68.0,100,85,59,22.24,22.18,5,1,13,0.00
2013-7-10,83.9,75.0,68.2,78.0,72.3,68.0,99,92,79,22.24,21.88,10,1,15,0.00
2013-7-11,82.2,74.3,69.7,76.0,72.1,69.0,99,93,77,21.94,21.78,4,1,7,0.00
2013-7-12,81.0,73.4,68.8,74.0,70.3,68.0,99,90,76,21.78,21.78,7,1,10,0.00
2013-7-13,78.0,71.7,67.5,72.0,68.4,66.0,96,90,80,25.69,0.00,5,2,11,0.03
2013-7-14,83.9,74.5,70.8,77.0,72.0,70.0,99,93,71,0.00,0.00,12,2,15,0.84
2013-7-15,85.7,74.9,66.2,74.0,70.4,66.0,100,87,57,22.34,0.00,3,0,7,0.01
2013-7-16,91.0,77.5,66.0,76.0,70.1,66.0,99,81,46,22.34,22.34,6,1,8,0.00
2013-7-17,91.6,76.7,69.4,79.0,71.9,68.0,97,87,59,22.34,22.34,12,2,18,0.12
2013-7-18,89.8,77.4,68.3,77.0,72.4,68.0,99,86,63,22.34,22.34,6,2,14,0.00
2013-7-19,88.7,78.1,68.3,78.0,73.3,68.0,100,86,59,22.34,22.05,7,1,11,0.00
2013-7-20,84.4,74.1,70.1,79.0,72.5,69.0,99,95,71,22.05,22.05,7,1,26,0.96
2013-7-21,84.9,72.8,68.0,76.0,71.4,68.0,100,96,73,22.05,22.05,5,1,12,0.07
2013-7-22,84.7,74.9,69.5,77.0,72.4,69.0,100,92,73,22.05,22.05,7,1,18,0.33
2013-7-23,87.3,76.2,67.3,75.0,70.3,67.0,99,84,54,22.05,21.57,12,2,18,0.01
2013-7-24,89.0,76.8,66.0,75.0,70.8,66.0,99,83,58,21.57,21.57,12,1,16,0.00
2013-7-25,82.1,74.0,66.2,72.0,69.0,66.0,99,85,65,21.57,21.57,5,1,9,0.16
2013-7-26,82.7,73.8,67.2,73.0,70.1,67.0,99,89,71,21.57,21.57,6,1,10,0.01
2013-7-27,78.0,71.5,68.1,73.0,70.0,68.0,99,95,83,26.06,20.87,6,1,15,2.18
2013-7-28,83.4,74.4,68.9,75.0,70.4,69.0,99,89,68,0.00,0.00,6,1,10,0.01
2013-7-29,83.3,72.2,60.2,72.0,66.2,60.0,99,83,60,26.14,0.00,5,1,7,0.00
2013-7-30,81.0,71.3,63.6,72.0,65.8,62.0,97,84,64,21.47,21.47,4,0,7,0.00
2013-7-31,73.0,70.6,68.8,72.0,69.8,69.0,99,97,91,0.00,0.00,5,1,7,0.34
2013-8-1,84.9,74.1,69.3,75.0,71.3,69.0,100,92,66,0.00,0.00,7,1,12,0.65
2013-8-2,83.6,74.5,65.0,74.0,69.2,65.0,99,85,62,0.00,0.00,5,1,8,0.01
2013-8-3,85.8,75.9,67.8,75.0,70.9,68.0,100,86,61,0.00,0.00,9,2,11,0.00
2013-8-4,85.3,75.5,67.7,73.0,67.3,63.0,98,78,48,0.00,0.00,9,2,12,0.03
2013-8-5,82.7,71.5,63.9,73.0,67.2,63.0,99,87,69,0.00,0.00,5,1,10,0.00
2013-8-6,78.0,72.6,68.4,74.0,70.0,67.0,97,92,83,0.00,0.00,6,1,10,0.01
2013-8-7,77.4,72.6,69.7,74.0,71.4,69.0,99,96,87,0.00,0.00,6,1,8,0.21
2013-8-8,84.3,75.7,69.7,78.0,73.4,70.0,100,93,75,0.00,0.00,6,0,8,0.01
2013-8-9,88.6,76.6,68.5,78.0,73.2,68.0,100,90,65,0.00,0.00,8,2,12,0.01
2013-8-10,89.3,76.2,71.0,78.0,73.4,70.0,100,92,58,0.00,0.00,12,1,17,0.08
2013-8-11,87.4,76.0,69.2,77.0,72.7,69.0,100,90,67,0.00,0.00,7,1,13,0.01
2013-8-12,88.7,76.7,68.8,77.0,72.4,69.0,99,88,63,0.00,0.00,6,1,16,0.02
2013-8-13,85.8,75.5,70.2,76.0,72.2,67.0,100,90,67,32.00,0.00,9,2,24,0.50
2013-8-14,78.4,71.5,64.1,69.0,66.3,63.0,97,84,67,32.00,32.00,5,1,9,0.00
2013-8-15,71.0,64.2,55.6,64.0,59.6,55.0,98,86,68,32.00,32.00,5,1,8,0.00
2013-8-16,73.5,63.7,55.7,63.0,59.4,55.0,99,87,67,32.00,32.00,9,1,9,0.00
2013-8-17,67.2,62.8,57.7,64.0,60.7,57.0,98,93,84,32.00,32.00,3,0,7,0.24
2013-8-18,76.9,68.2,63.4,71.0,66.3,63.0,100,94,80,32.00,32.00,5,0,6,0.23
2013-8-19,75.4,70.0,66.8,70.0,68.4,67.0,100,95,81,32.00,32.00,4,0,6,0.38
2013-8-20,78.9,71.3,65.1,73.0,69.0,65.0,100,93,78,32.00,32.00,4,0,6,0.00
2013-8-21,79.6,71.9,66.5,75.0,70.3,66.0,100,95,82,32.00,32.00,5,1,9,0.10
2013-8-22,86.8,76.0,67.2,75.0,71.2,67.0,100,87,61,32.00,32.00,5,1,7,0.00
2013-8-23,84.8,72.8,64.4,74.0,69.4,64.0,100,90,65,32.00,32.00,5,1,14,0.19
2013-8-24,79.2,70.5,60.3,70.0,63.0,60.0,99,79,55,32.22,21.53,8,2,11,0.00
2013-8-25,78.3,66.0,55.5,67.0,60.5,55.0,99,84,57,32.27,21.82,10,1,10,0.01
2013-8-26,82.8,68.1,55.6,69.0,62.8,55.0,100,85,58,32.40,0.00,5,1,9,0.00
2013-8-27,86.6,72.3,60.4,75.0,67.5,60.0,100,86,60,0.00,0.00,9,1,9,0.01
2013-8-28,87.1,76.5,67.3,77.0,71.2,67.0,98,85,64,0.00,0.00,8,1,10,0.00
2013-8-29,92.4,79.3,70.5,76.0,72.3,70.0,97,81,49,32.08,0.00,10,2,13,0.18
2013-8-30,84.6,76.0,70.8,74.0,72.1,70.0,99,88,69,32.23,32.08,4,0,7,0.30
2013-8-31,86.5,74.7,68.7,77.0,72.1,68.0,100,92,71,32.13,21.51,14,1,26,0.96
2013-9-1,87.0,72.9,68.4,78.0,70.9,68.0,100,94,73,32.10,31.85,11,1,37,0.35
2013-9-2,86.7,74.7,65.7,77.0,70.7,66.0,100,89,60,32.05,20.55,7,1,8,0.01
2013-9-3,85.7,75.9,67.8,74.0,69.0,65.0,99,81,50,31.85,31.82,8,2,13,0.00
2013-9-4,83.8,71.5,59.9,71.0,66.0,60.0,99,84,62,32.23,31.83,6,1,8,0.01
2013-9-5,85.2,73.3,62.2,71.0,65.7,60.0,99,80,45,32.33,0.00,7,1,10,0.00
2013-9-6,79.8,69.4,59.0,68.0,63.3,58.0,99,82,60,32.39,32.26,5,1,9,0.01
2013-9-7,82.3,69.8,58.1,71.0,64.8,58.0,99,86,61,32.34,0.00,9,1,12,0.00
2013-9-8,85.9,71.8,60.2,73.0,66.6,60.0,100,86,53,32.09,0.00,7,1,11,0.01
2013-9-9,84.6,73.6,63.9,74.0,68.7,64.0,100,86,61,32.26,31.88,6,1,9,0.00
2013-9-10,87.1,73.3,63.2,74.0,68.4,63.0,100,86,58,32.26,32.26,5,1,10,0.01
2013-9-11,87.6,73.8,64.9,74.0,69.8,65.0,100,88,62,32.42,32.26,6,1,9,0.01
2013-9-12,87.1,73.7,65.9,75.0,70.3,66.0,100,90,61,32.38,20.50,9,1,13,0.01
2013-9-13,80.8,71.1,60.9,71.0,61.9,53.0,99,76,46,31.94,20.31,10,3,19,0.00
2013-9-14,91.4,62.1,49.8,62.0,54.2,49.0,97,78,36,32.33,20.47,7,1,13,0.28
2013-9-15,77.0,63.0,50.7,66.0,58.2,50.0,99,86,65,32.38,0.00,6,0,7,0.01
2013-9-16,82.6,67.4,56.3,68.0,61.6,56.0,100,84,55,32.34,24.66,7,1,10,0.01
2013-9-17,70.5,65.7,58.5,63.0,58.3,56.0,92,78,63,0.00,0.00,6,1,10,0.00
2013-9-18,68.3,63.0,57.5,62.0,57.5,54.0,94,83,68,32.31,0.00,5,1,8,0.00
2013-9-19,79.4,67.3,61.9,69.0,63.9,61.0,99,90,67,32.31,21.62,4,0,7,0.06
2013-9-20,84.5,71.2,61.1,71.0,66.3,61.0,100,86,58,32.27,21.10,7,1,9,0.01
2013-9-21,71.2,68.0,64.7,69.0,67.0,64.0,99,97,92,32.39,20.38,9,1,15,0.66
2013-9-22,77.3,64.6,51.6,64.0,57.9,51.0,100,82,49,32.28,0.00,10,1,11,0.02
2013-9-23,72.6,61.0,52.1,61.0,56.3,52.0,99,86,65,32.04,20.50,6,1,10,0.00
2013-9-24,77.2,65.5,57.3,63.0,60.0,56.0,99,84,58,32.18,0.00,6,1,12,0.00
2013-9-25,66.1,61.8,58.0,64.0,60.7,57.0,99,96,90,32.14,0.00,3,0,7,0.16
2013-9-26,74.8,63.4,56.3,63.0,57.9,53.0,100,85,48,31.94,0.00,7,1,12,0.00
2013-9-27,74.9,61.3,49.4,61.0,55.6,49.0,100,84,58,32.19,0.00,6,1,10,0.01
2013-9-28,70.8,62.2,55.4,60.0,56.7,54.0,98,83,64,32.41,0.00,9,1,10,0.00
2013-9-29,71.4,61.6,52.8,60.0,56.5,52.0,98,84,66,32.11,0.00,5,1,12,0.00
2013-9-30,76.1,64.9,57.5,64.0,59.2,55.0,98,84,54,32.15,31.95,6,1,8,0.00
2013-10-1,80.9,66.0,53.2,64.0,59.7,53.0,100,83,51,32.24,31.13,8,1,10,0.00
2013-10-2,82.8,66.9,54.6,66.0,60.5,54.0,99,83,49,32.32,0.00,4,1,11,0.01
2013-10-3,81.2,67.6,57.7,67.0,62.4,57.0,99,85,57,32.22,20.74,5,1,8,0.00
2013-10-4,84.1,67.9,55.6,68.0,62.2,55.0,100,85,52,32.28,0.00,5,1,7,0.01
2013-10-5,85.0,70.0,59.0,69.0,64.1,59.0,99,84,53,32.32,0.00,5,1,7,0.01
2013-10-6,81.8,67.9,57.5,71.0,63.2,57.0,100,87,60,32.04,31.81,8,1,13,0.01
2013-10-7,73.2,65.5,54.6,68.0,62.1,53.0,100,90,66,32.40,20.89,10,2,17,1.56
2013-10-8,68.3,55.7,46.0,54.0,50.0,46.0,99,83,57,32.05,32.03,9,2,15,0.01
2013-10-9,71.3,55.6,41.2,53.0,45.9,40.0,99,75,37,32.03,32.03,7,1,13,0.00
2013-10-10,74.2,56.7,41.6,63.0,51.1,41.0,99,84,53,32.35,31.97,7,1,10,0.01
2013-10-11,78.0,63.5,54.0,61.0,55.4,52.0,95,77,47,31.96,0.00,11,3,14,0.00
2013-10-12,64.3,58.7,54.7,59.0,55.5,53.0,96,90,73,32.07,21.12,4,0,6,0.00
2013-10-13,72.9,67.6,61.5,66.0,63.3,61.0,99,87,75,32.33,0.00,8,2,10,0.07
2013-10-14,69.7,63.8,59.0,63.0,60.8,58.0,98,90,75,32.36,0.00,8,1,13,0.03
2013-10-15,72.7,62.5,56.0,60.0,56.8,54.0,96,83,59,32.27,21.13,6,1,11,0.00
2013-10-16,71.9,60.1,49.9,62.0,56.6,50.0,99,89,69,32.31,0.00,5,1,9,0.01
2013-10-17,69.1,62.6,58.9,66.0,61.7,58.0,99,97,88,32.28,20.93,4,0,7,0.14
2013-10-18,68.6,58.9,46.3,63.0,55.0,46.0,99,88,66,31.91,31.72,8,1,8,0.00
2013-10-19,63.2,57.3,51.5,61.0,56.1,51.0,99,96,88,32.49,31.75,4,0,5,0.02
2013-10-20,63.6,51.9,40.0,50.0,44.6,38.0,98,78,51,32.23,31.38,6,1,10,0.01
2013-10-21,67.6,49.9,36.2,55.0,45.7,36.0,98,87,59,32.49,31.49,7,1,11,0.01
2013-10-22,67.1,56.9,50.1,58.0,53.2,49.0,99,89,64,31.90,31.61,4,0,7,0.01
2013-10-23,60.3,51.3,42.2,54.0,42.5,31.0,98,75,45,32.41,20.13,26,6,30,0.01
2013-10-24,56.6,32.2,40.9,39.0,-11.4,-99.9,74,40,49,32.45,31.41,12,-348,20,0.00
2013-10-25,49.2,41.5,30.6,38.0,31.6,28.0,95,69,49,32.27,31.41,10,3,16,0.00
2013-10-26,57.1,38.9,24.4,40.0,30.6,23.0,95,76,43,32.27,29.72,9,2,13,0.00
2013-10-27,69.3,52.2,35.5,51.0,43.7,34.0,97,75,47,32.32,0.00,9,2,14,0.00
2013-10-28,62.5,53.2,46.1,56.0,50.7,45.0,98,92,80,32.04,20.68,3,0,6,0.00
2013-10-29,71.3,55.7,42.6,58.0,50.8,42.0,99,86,56,32.27,23.34,5,1,9,0.01
2013-10-30,77.2,61.5,51.9,60.0,55.5,51.0,100,83,52,32.24,22.85,10,1,15,0.00
2013-10-31,67.3,58.9,50.8,61.0,55.8,50.0,99,90,71,32.22,25.68,8,1,11,0.00
2013-11-1,71.6,65.9,54.2,66.0,61.4,53.0,97,86,75,32.27,20.58,23,5,26,0.06
2013-11-2,66.7,55.1,41.1,54.0,44.9,37.0,99,72,41,32.41,20.31,24,4,32,0.01
2013-11-3,61.0,46.4,32.1,43.0,35.9,31.0,97,70,39,32.37,20.91,10,1,13,0.00
2013-11-4,56.9,42.0,29.2,39.0,32.0,28.0,97,72,38,32.37,32.22,8,1,12,0.00
2013-11-5,59.0,43.0,30.0,48.0,37.2,28.0,96,81,59,32.22,32.22,4,1,8,0.00
2013-11-6,65.4,54.2,48.8,56.0,51.2,48.0,99,90,69,32.22,32.13,4,0,7,0.03
2013-11-7,67.4,50.6,40.8,59.0,44.7,34.0,99,83,49,32.13,31.54,18,3,29,0.01
2013-11-8,56.6,42.7,27.9,37.0,28.8,24.0,92,63,30,32.21,31.54,8,2,17,0.00
2013-11-9,56.8,39.3,26.0,36.0,29.7,24.0,94,72,39,32.13,21.24,10,2,13,0.00
2013-11-10,70.7,48.5,30.8,42.0,34.3,29.0,95,65,27,32.19,21.17,13,3,23,0.00
2013-11-11,61.7,44.9,26.2,33.0,28.7,23.0,90,57,29,32.25,0.00,5,1,11,0.00
2013-11-12,60.8,41.1,31.5,41.0,30.7,16.0,92,69,39,32.48,31.92,17,5,26,0.00
2013-11-13,49.7,33.7,18.8,22.0,17.3,14.0,83,54,28,32.48,21.65,9,1,18,0.00
2013-11-14,58.4,36.0,19.7,28.0,22.1,17.0,89,63,28,32.39,21.13,7,1,10,0.00
2013-11-15,56.6,39.0,24.6,42.0,29.1,21.0,93,70,41,32.28,21.97,4,0,5,0.11
2013-11-16,56.9,49.7,44.2,53.0,48.5,43.0,99,96,87,32.30,26.15,4,0,4,0.01
2013-11-17,61.9,58.9,57.2,58.0,57.6,57.0,99,96,88,21.24,21.00,7,1,9,0.29
2013-11-18,69.9,61.1,54.4,59.0,48.4,32.0,100,68,33,31.79,20.76,22,6,25,0.01
2013-11-19,55.2,46.5,33.9,35.0,29.2,26.0,78,52,34,32.03,20.85,10,2,13,0.00
2013-11-20,50.6,41.2,30.4,33.0,30.4,26.0,87,66,48,32.29,32.03,8,2,12,0.00
2013-11-21,52.9,44.2,33.0,47.0,39.0,30.0,92,82,72,32.29,32.29,5,1,6,0.00
2013-11-22,60.7,52.7,48.1,57.0,51.4,47.0,100,95,88,32.29,32.18,4,0,6,0.04
2013-11-23,57.8,52.7,43.7,56.0,44.6,20.0,99,77,38,32.01,20.98,18,4,28,0.04
2013-11-24,43.1,34.1,26.2,26.0,13.6,6.0,57,44,25,32.42,21.19,17,5,29,0.00
2013-11-25,36.6,27.2,16.9,20.0,14.0,10.0,88,60,37,32.44,21.09,4,0,6,0.00
2013-11-26,42.6,35.2,31.6,42.0,32.4,19.0,99,90,53,31.66,31.27,6,1,7,2.46
2013-11-27,43.6,37.5,28.7,43.0,31.5,16.0,99,80,54,31.27,20.72,29,8,32,0.09
2013-11-28,44.7,29.4,16.5,25.0,19.6,14.0,92,69,43,32.33,20.72,6,1,8,0.09
2013-11-29,47.6,27.6,20.2,29.0,23.0,19.0,95,84,46,31.81,31.81,4,0,5,0.00
2013-11-30,44.8,32.0,21.4,29.0,24.2,20.0,95,75,47,32.30,0.00,7,1,8,0.00
2013-12-1,56.8,35.6,21.6,37.0,28.1,20.0,95,77,46,32.30,31.54,4,1,8,0.00
2013-12-2,57.1,40.3,27.3,40.0,33.5,26.0,96,79,49,31.62,20.66,6,1,10,0.01
2013-12-3,59.0,48.0,38.6,51.0,43.5,36.0,94,85,69,31.81,20.66,6,1,9,0.01
2013-12-4,55.4,53.3,51.1,55.0,52.7,50.0,99,98,90,31.66,23.15,4,0,5,0.01
2013-12-5,64.5,58.7,54.4,64.0,58.6,54.0,100,99,97,32.26,20.88,4,0,10,0.21
2013-12-6,73.6,69.1,63.3,66.0,65.0,63.0,100,87,76,30.95,20.83,21,8,27,0.03
2013-12-7,69.4,55.5,46.1,65.0,51.3,39.0,99,86,72,29.65,21.61,10,3,20,0.03
2013-12-8,45.7,36.0,33.1,38.0,34.2,32.0,97,93,74,32.22,0.00,8,3,11,0.18
2013-12-9,43.3,37.4,33.4,43.0,36.8,32.6,99,98,97,32.15,32.15,4,1,8,0.47
2013-12-10,52.1,43.1,31.4,48.3,37.8,21.0,100,84,50,32.49,31.49,20,3,25,0.22
2013-12-11,51.7,33.8,20.3,31.0,24.6,18.3,93,72,35,32.28,21.76,7,1,9,0.00
2013-12-12,45.8,36.7,24.6,28.5,19.7,12.0,88,52,26,32.17,21.76,8,3,14,0.00
2013-12-13,50.0,32.2,19.0,29.0,21.2,16.7,93,67,36,32.14,0.00,4,0,6,0.00
2013-12-14,38.5,36.3,34.3,37.0,33.7,28.6,97,90,79,32.20,23.62,6,1,10,0.77
2013-12-15,48.5,40.1,33.4,40.4,33.9,26.0,99,80,53,32.48,20.83,14,4,23,0.77
2013-12-16,59.0,40.4,26.4,35.6,29.9,24.0,93,70,38,31.99,20.89,12,3,19,0.00
2013-12-17,63.1,43.5,28.2,39.7,32.9,26.0,95,70,38,32.39,20.71,25,4,35,0.00
2013-12-18,51.5,40.9,28.2,37.0,20.6,13.3,73,46,22,31.70,21.67,29,5,36,0.00
2013-12-19,63.7,39.0,23.0,35.0,25.0,19.6,90,62,32,31.78,21.41,6,0,8,0.00
2013-12-20,62.0,43.8,30.1,43.9,34.7,27.3,92,72,46,32.46,21.41,5,1,6,0.00
2013-12-21,60.6,49.8,39.0,58.3,47.9,38.0,98,93,83,32.47,31.61,5,0,5,0.00
2013-12-22,67.4,62.0,58.0,65.0,60.7,56.9,100,96,90,32.10,20.89,18,4,24,2.13
2013-12-23,60.2,56.3,43.6,60.1,53.7,35.9,100,91,71,31.76,20.82,10,2,15,0.70
2013-12-24,43.5,36.3,28.8,35.3,27.0,16.9,94,70,47,31.83,25.09,15,5,20,0.70
2013-12-25,38.3,26.6,16.9,20.4,16.1,9.8,92,68,34,32.04,17.09,5,1,7,0.00
2013-12-26,24.3,20.6,18.5,18.8,17.2,16.0,92,87,79,32.20,16.38,3,0,4,0.00
2013-12-27,51.7,38.3,22.1,30.4,25.2,20.4,94,64,36,32.25,31.32,6,1,8,0.00
2013-12-28,48.9,34.2,21.8,40.0,28.4,20.0,96,81,51,32.25,31.74,5,1,7,0.09
2013-12-29,59.4,44.7,39.3,50.2,41.3,38.6,98,89,61,32.49,31.29,19,4,26,0.53
2013-12-30,51.9,42.6,31.3,42.1,36.5,30.0,97,80,63,32.37,31.55,12,2,22,0.53
2013-12-31,49.3,39.9,29.4,38.7,28.3,19.0,93,67,33,31.81,31.61,14,3,19,0.00
2014-1-1,48.8,34.1,24.7,32.0,26.3,22.0,92,75,47,32.36,29.46,5,1,9,0.00
2014-1-2,39.2,33.7,28.8,38.3,32.2,27.0,98,94,86,32.48,31.28,8,1,11,0.16